Time;durP1;ratioP1;P1;durP2;ratioP2;P2;SDS_P1;SDS_P2;PMS_P1;PMS_P2;Temp;Humidity;BMP_temperature;BMP_pressure;BME280_temperature;BME280_humidity;BME280_pressure;Samples;Min_cycle;Max_cycle;Signal;HPM_P1;HPM_P2
2022/11/03 00:02:26;;;;;;;0.73;0.40;;;13.40;99.90;13.50;101169.00;;;;5017783;28;20201;-68
2022/11/03 00:04:54;;;;;;;0.20;0.20;;;13.30;99.90;13.40;101168.00;;;;5034341;28;20231;-68
2022/11/03 00:07:23;;;;;;;1.23;1.13;;;13.20;99.90;13.50;101163.00;;;;5034531;28;20538;-68
2022/11/03 00:09:49;;;;;;;0.30;0.30;;;13.20;99.90;13.50;101162.00;;;;5043872;28;20646;-68
2022/11/03 00:12:18;;;;;;;0.30;0.30;;;13.20;99.90;13.70;101164.00;;;;5035671;28;20202;-68
2022/11/03 00:14:44;;;;;;;0.40;0.40;;;13.30;99.90;13.70;101171.00;;;;5034429;28;20171;-68
2022/11/03 00:17:12;;;;;;;0.20;0.20;;;13.30;99.90;13.60;101164.00;;;;5034196;28;20186;-68
2022/11/03 00:19:44;;;;;;;0.30;0.30;;;13.30;99.90;13.50;101173.00;;;;5034163;28;20178;-68
2022/11/03 00:22:09;;;;;;;0.40;0.40;;;13.30;99.90;13.30;101156.00;;;;5035224;28;20179;-68
2022/11/03 00:24:35;;;;;;;0.23;0.23;;;13.20;99.90;13.40;101160.00;;;;5035484;28;20178;-68
2022/11/03 00:27:04;;;;;;;0.40;0.30;;;13.20;99.90;13.10;101151.00;;;;5035595;28;20206;-68
2022/11/03 00:29:30;;;;;;;0.50;0.40;;;13.10;99.90;13.10;101135.00;;;;5035558;28;20171;-68
2022/11/03 00:31:56;;;;;;;1.83;1.60;;;13.00;99.90;13.30;101136.00;;;;5034869;28;20268;-68
2022/11/03 00:34:25;;;;;;;0.33;0.33;;;13.10;99.90;13.60;101138.00;;;;5035206;28;20179;-68
2022/11/03 00:36:54;;;;;;;8.73;2.10;;;13.20;99.90;13.20;101133.00;;;;5035359;28;20181;-69
2022/11/03 00:39:25;;;;;;;1.63;0.93;;;13.10;99.90;13.40;101114.00;;;;5033985;28;20218;-68
2022/11/03 00:41:52;;;;;;;0.33;0.33;;;13.10;99.90;13.30;101125.00;;;;5050454;28;20206;-68
2022/11/03 00:44:18;;;;;;;1.20;0.73;;;13.10;99.90;13.30;101122.00;;;;5034028;28;20167;-68
2022/11/03 00:46:49;;;;;;;0.47;0.47;;;13.10;99.90;13.20;101101.00;;;;5034785;28;20634;-68
2022/11/03 00:49:15;;;;;;;0.63;0.63;;;13.10;99.90;13.30;101102.00;;;;5017006;28;20179;-68
2022/11/03 00:51:44;;;;;;;0.30;0.30;;;13.10;99.90;13.50;101112.00;;;;5034956;28;20198;-68
2022/11/03 00:54:10;;;;;;;0.50;0.40;;;13.20;99.90;13.40;101057.00;;;;5033594;28;20176;-68
2022/11/03 00:56:39;;;;;;;0.30;0.30;;;13.10;99.90;13.30;101099.00;;;;5032621;28;20645;-68
2022/11/03 00:59:07;;;;;;;0.47;0.43;;;13.10;99.90;13.30;101099.00;;;;5017549;28;20187;-68
2022/11/03 01:01:41;;;;;;;1.30;0.70;;;13.10;99.90;13.10;101083.00;;;;5033019;28;20196;-68
2022/11/03 01:06:57;;;;;;;0.80;0.43;;;13.00;99.90;13.10;101074.00;;;;5033497;28;20282;-68
2022/11/03 01:09:34;;;;;;;6.23;4.67;;;13.00;99.90;13.10;101065.00;;;;5033428;28;20322;-68
2022/11/03 01:12:08;;;;;;;0.43;0.43;;;13.00;99.90;13.10;101072.00;;;;5033261;28;20244;-68
2022/11/03 01:14:40;;;;;;;0.20;0.20;;;13.00;99.90;13.10;101075.00;;;;5033340;28;20175;-68
2022/11/03 01:17:10;;;;;;;0.50;0.50;;;13.10;99.90;13.20;101065.00;;;;5034501;28;20190;-68
2022/11/03 01:19:39;;;;;;;0.30;0.30;;;13.10;99.90;13.10;101069.00;;;;5033093;28;20208;-68
2022/11/03 01:22:05;;;;;;;0.30;0.30;;;13.10;99.90;13.30;101061.00;;;;5034159;28;20193;-68
2022/11/03 01:24:31;;;;;;;0.20;0.20;;;13.10;99.90;13.10;101053.00;;;;5034278;28;20186;-69
2022/11/03 01:26:57;;;;;;;0.77;0.43;;;13.10;99.90;13.10;101047.00;;;;5033093;28;20182;-68
2022/11/03 01:29:23;;;;;;;0.20;0.20;;;13.10;99.90;13.10;101054.00;;;;5016656;28;20191;-68
2022/11/03 01:31:55;;;;;;;22.37;1.17;;;13.10;99.90;13.30;101045.00;;;;5032451;28;20213;-68
2022/11/03 01:34:21;;;;;;;2.57;0.83;;;13.10;99.90;13.10;101047.00;;;;5032772;28;20704;-68
2022/11/03 01:36:47;;;;;;;0.30;0.30;;;13.10;99.90;13.20;101047.00;;;;5032701;28;20198;-69
2022/11/03 01:39:17;;;;;;;0.43;0.43;;;13.10;99.90;13.20;101047.00;;;;5049083;28;20221;-69
2022/11/03 01:41:49;;;;;;;22.57;7.53;;;13.10;99.90;13.10;101041.00;;;;5032451;28;20278;-69
2022/11/03 01:44:18;;;;;;;0.30;0.30;;;13.10;99.90;13.40;101036.00;;;;5015867;28;20191;-69
2022/11/03 01:47:12;;;;;;;0.20;0.20;;;13.10;99.90;13.30;101012.00;;;;5033680;28;20180;-69
2022/11/03 01:50:05;;;;;;;0.20;0.20;;;13.10;99.90;13.10;101030.00;;;;5028725;28;20194;-68
2022/11/03 01:52:58;;;;;;;3.17;0.87;;;13.10;99.90;13.30;101014.00;;;;5026163;28;20611;-69
2022/11/03 01:56:15;;;;;;;0.93;0.93;;;13.00;99.90;13.20;101008.00;;;;5016368;28;20199;-68
2022/11/03 01:58:45;;;;;;;0.30;0.30;;;13.10;99.90;13.50;100997.00;;;;5032749;28;20182;-68
2022/11/03 02:01:14;;;;;;;0.20;0.20;;;13.10;99.90;13.40;101005.00;;;;5016052;28;20182;-68
2022/11/03 02:03:56;;;;;;;0.20;0.20;;;13.10;99.90;13.20;101009.00;;;;5049096;28;20186;-67
2022/11/03 02:06:26;;;;;;;0.30;0.30;;;13.10;99.90;13.20;100991.00;;;;5031923;28;20653;-68
2022/11/03 02:09:07;;;;;;;0.20;0.20;;;13.10;99.90;13.30;100996.00;;;;5049076;28;20188;-68
2022/11/03 02:14:22;;;;;;;0.97;0.40;;;13.10;99.90;13.30;100996.00;;;;5011599;28;20219;-68
2022/11/03 02:17:05;;;;;;;0.40;0.40;;;13.10;99.90;13.20;100976.00;;;;5012603;28;20167;-68
2022/11/03 02:19:46;;;;;;;2.03;0.40;;;13.10;99.90;13.20;100972.00;;;;4996486;28;20226;-68
2022/11/03 02:22:37;;;;;;;3.37;0.93;;;13.10;99.90;13.10;100964.00;;;;4996219;28;20555;-68
2022/11/03 02:25:44;;;;;;;0.30;0.30;;;13.10;99.90;13.20;100969.00;;;;5013528;28;20180;-68
2022/11/03 02:28:14;;;;;;;3.30;1.67;;;13.10;99.90;13.20;100961.00;;;;5012219;28;20207;-68
2022/11/03 02:30:56;;;;;;;0.87;0.50;;;13.10;99.90;13.40;100939.00;;;;5013630;28;20201;-68
2022/11/03 02:33:52;;;;;;;0.20;0.20;;;13.20;99.90;13.20;100954.00;;;;4995587;28;20223;-68
2022/11/03 02:36:53;;;;;;;1.30;0.40;;;13.10;99.90;13.10;100959.00;;;;5012103;28;20186;-68
2022/11/03 02:39:22;;;;;;;0.33;0.33;;;13.10;99.90;13.10;100926.00;;;;5018122;28;20665;-68
2022/11/03 02:41:50;;;;;;;0.30;0.30;;;13.10;99.90;13.30;100937.00;;;;5045244;28;20203;-68
2022/11/03 02:44:19;;;;;;;0.20;0.20;;;13.20;99.90;13.30;100894.00;;;;5013934;28;20168;-68
2022/11/03 02:46:49;;;;;;;0.53;0.30;;;13.20;99.90;13.30;100928.00;;;;5012610;28;20184;-68
2022/11/03 02:49:15;;;;;;;4.63;1.23;;;13.10;99.90;13.20;100927.00;;;;5012449;28;20193;-68
2022/11/03 02:51:41;;;;;;;5.40;1.63;;;13.10;99.90;13.10;100919.00;;;;5012119;28;20201;-69
2022/11/03 02:54:17;;;;;;;0.50;0.37;;;13.10;99.90;13.10;100926.00;;;;5013479;28;20189;-68
2022/11/03 02:56:52;;;;;;;0.33;0.33;;;13.10;99.90;13.20;100859.00;;;;5013218;28;20172;-68
2022/11/03 02:59:33;;;;;;;2.30;0.40;;;13.10;99.90;13.40;100904.00;;;;5012491;28;20201;-68
2022/11/03 03:02:11;;;;;;;0.20;0.20;;;13.10;99.90;13.40;100893.00;;;;5011790;28;20191;-68
2022/11/03 03:04:42;;;;;;;0.67;0.67;;;13.20;99.90;13.30;100849.00;;;;5012269;28;20168;-68
2022/11/03 03:07:19;;;;;;;0.30;0.30;;;13.20;99.90;12.90;100893.00;;;;5012072;28;20253;-68
2022/11/03 03:10:01;;;;;;;0.30;0.30;;;13.10;99.90;13.10;100877.00;;;;5028922;28;20178;-68
2022/11/03 03:12:27;;;;;;;0.93;0.57;;;13.10;99.90;13.20;100871.00;;;;5011538;28;20261;-68
2022/11/03 03:14:55;;;;;;;0.20;0.20;;;13.10;99.90;13.20;100860.00;;;;5011820;28;20541;-68
2022/11/03 03:17:43;;;;;;;0.30;0.30;;;13.10;99.90;13.30;100871.00;;;;5012065;28;20178;-68
2022/11/03 03:20:28;;;;;;;1.50;0.60;;;13.10;99.90;13.00;100860.00;;;;5015432;28;20171;-69
2022/11/03 03:23:18;;;;;;;0.33;0.33;;;13.00;99.90;13.00;100864.00;;;;5015432;28;20664;-68
2022/11/03 03:26:04;;;;;;;0.73;0.37;;;13.00;99.90;13.20;100866.00;;;;5015688;28;20163;-68
2022/11/03 03:28:44;;;;;;;0.80;0.53;;;13.10;99.90;13.20;100856.00;;;;5015618;28;20316;-68
2022/11/03 03:31:15;;;;;;;0.30;0.30;;;13.10;99.90;13.30;100855.00;;;;5015338;28;20216;-68
2022/11/03 03:33:46;;;;;;;3.07;0.73;;;13.10;99.90;13.20;100863.00;;;;5014938;28;20210;-68
2022/11/03 03:36:19;;;;;;;0.83;0.53;;;13.10;99.90;13.40;100853.00;;;;5015618;28;20230;-69
2022/11/03 03:38:59;;;;;;;0.47;0.47;;;13.20;99.90;13.40;100856.00;;;;5016083;28;20654;-68
2022/11/03 03:41:27;;;;;;;0.43;0.43;;;13.30;99.90;13.20;100844.00;;;;5015165;28;20182;-68
2022/11/03 03:44:00;;;;;;;0.20;0.20;;;13.10;99.90;13.20;100847.00;;;;5015070;28;20175;-68
2022/11/03 03:46:32;;;;;;;0.93;0.70;;;13.10;99.90;13.00;100844.00;;;;5015170;28;20195;-68
2022/11/03 03:49:01;;;;;;;0.60;0.60;;;13.10;99.90;13.10;100843.00;;;;5015165;28;20160;-68
2022/11/03 03:51:29;;;;;;;0.77;0.77;;;13.10;99.90;13.10;100827.00;;;;5015262;28;20559;-68
2022/11/03 03:53:55;;;;;;;0.20;0.20;;;13.10;99.90;13.10;100826.00;;;;5014581;28;20190;-68
2022/11/03 03:56:45;;;;;;;0.30;0.30;;;13.10;99.90;13.10;100835.00;;;;5015230;28;20160;-68
2022/11/03 03:59:11;;;;;;;0.20;0.20;;;13.10;99.90;13.20;100818.00;;;;5015073;28;20197;-68
2022/11/03 04:01:40;;;;;;;0.40;0.40;;;13.10;99.90;13.30;100827.00;;;;5031282;28;20186;-68
2022/11/03 04:04:05;;;;;;;0.50;0.47;;;13.10;99.90;13.20;100823.00;;;;5031185;28;20182;-68
2022/11/03 04:06:34;;;;;;;0.20;0.20;;;13.10;99.90;13.30;100775.00;;;;5014738;28;20181;-68
2022/11/03 04:09:00;;;;;;;0.63;0.63;;;13.10;99.90;13.10;100810.00;;;;5014413;28;20267;-68
2022/11/03 04:22:30;;;;;;;0.43;0.37;;;13.10;99.90;13.10;100758.00;;;;5014704;28;20196;-68
2022/11/03 04:25:00;;;;;;;0.20;0.20;;;13.10;99.90;13.30;100800.00;;;;5030511;28;20195;-68
2022/11/03 04:27:35;;;;;;;0.47;0.47;;;13.10;99.90;13.20;100789.00;;;;5014588;28;20194;-68
2022/11/03 04:30:19;;;;;;;6.20;0.90;;;13.10;99.90;13.30;100792.00;;;;5013986;28;20187;-68
2022/11/03 04:32:47;;;;;;;1.30;0.87;;;13.10;99.90;13.20;100790.00;;;;5014092;28;20705;-68
2022/11/03 04:35:24;;;;;;;0.43;0.40;;;13.10;99.90;13.20;100788.00;;;;5014138;28;20190;-68
2022/11/03 04:38:22;;;;;;;0.20;0.20;;;13.10;99.90;13.10;100789.00;;;;5014140;28;20175;-68
2022/11/03 04:40:56;;;;;;;0.20;0.20;;;13.10;99.90;13.20;100782.00;;;;5006448;28;20281;-68
2022/11/03 04:43:34;;;;;;;0.63;0.63;;;13.10;99.90;13.20;100727.00;;;;5014038;28;20175;-68
2022/11/03 04:46:01;;;;;;;0.93;0.83;;;13.10;99.90;13.30;100767.00;;;;5014079;28;20241;-68
2022/11/03 04:48:28;;;;;;;2.00;0.50;;;13.20;99.90;13.30;100760.00;;;;5014043;28;20171;-68
2022/11/03 04:51:01;;;;;;;0.20;0.20;;;13.20;99.90;13.00;100757.00;;;;5013528;28;20184;-67
2022/11/03 04:53:32;;;;;;;0.27;0.27;;;13.20;99.90;13.20;100751.00;;;;5013377;28;20322;-68
2022/11/03 04:55:59;;;;;;;4.37;3.70;;;13.20;99.90;13.20;100766.00;;;;5013641;28;20667;-68
2022/11/03 04:58:31;;;;;;;0.40;0.40;;;13.10;99.90;13.40;100748.00;;;;5030397;28;20184;-67
2022/11/03 05:01:00;;;;;;;0.30;0.30;;;13.20;99.90;13.40;100739.00;;;;5013608;28;20217;-67
2022/11/03 05:03:35;;;;;;;0.20;0.20;;;13.20;99.90;13.30;100743.00;;;;5013467;28;20178;-67
2022/11/03 05:06:20;;;;;;;0.40;0.40;;;13.20;99.90;13.60;100740.00;;;;5030018;28;20270;-68
2022/11/03 05:08:52;;;;;;;0.20;0.20;;;13.30;99.90;13.20;100732.00;;;;5013967;28;20229;-68
2022/11/03 05:11:25;;;;;;;0.40;0.30;;;13.20;99.90;13.30;100731.00;;;;5014735;28;20164;-68
2022/11/03 05:13:52;;;;;;;0.30;0.30;;;13.20;99.90;13.40;100724.00;;;;5013556;28;20172;-67
2022/11/03 05:16:18;;;;;;;7.83;0.77;;;13.20;99.90;13.30;100719.00;;;;5013441;28;20189;-68
2022/11/03 05:18:47;;;;;;;0.67;0.60;;;13.20;99.90;13.40;100726.00;;;;5013690;28;20177;-68
2022/11/03 05:21:18;;;;;;;0.60;0.60;;;13.30;99.90;13.30;100716.00;;;;5013010;28;20240;-68
2022/11/03 05:24:01;;;;;;;0.20;0.20;;;13.30;99.90;13.20;100704.00;;;;5013390;28;20180;-68
2022/11/03 05:26:33;;;;;;;2.63;0.37;;;13.20;99.90;13.30;100704.00;;;;5013330;28;20570;-68
2022/11/03 05:29:10;;;;;;;0.27;0.27;;;13.20;99.90;13.50;100707.00;;;;5013529;28;20618;-68
2022/11/03 05:31:36;;;;;;;0.33;0.33;;;13.30;99.90;13.50;100700.00;;;;5012996;28;20287;-68
2022/11/03 05:34:29;;;;;;;3.83;0.77;;;13.40;99.90;13.40;100700.00;;;;5045946;28;20194;-68
2022/11/03 05:37:05;;;;;;;0.30;0.30;;;13.30;99.90;13.50;100695.00;;;;5029112;28;20198;-68
2022/11/03 05:39:37;;;;;;;0.20;0.20;;;13.40;99.90;13.40;100667.00;;;;5029786;28;20685;-68
2022/11/03 05:42:21;;;;;;;0.53;0.53;;;13.30;99.90;13.40;100676.00;;;;5012356;28;20183;-68
2022/11/03 05:44:49;;;;;;;2.20;2.10;;;13.30;99.90;13.40;100663.00;;;;5029479;28;20215;-68
2022/11/03 05:47:36;;;;;;;2.07;1.30;;;13.40;99.90;13.50;100667.00;;;;5012896;28;20192;-68
2022/11/03 05:50:24;;;;;;;0.57;0.30;;;13.40;99.90;13.20;100665.00;;;;5012473;28;20161;-68
2022/11/03 05:53:11;;;;;;;0.97;0.80;;;13.40;99.90;13.20;100650.00;;;;5045671;28;20201;-68
2022/11/03 05:55:37;;;;;;;1.50;0.50;;;13.30;99.90;13.30;100653.00;;;;5014147;28;20234;-68
2022/11/03 05:58:28;;;;;;;0.50;0.50;;;13.30;99.90;13.30;100607.00;;;;5012928;28;20193;-68
2022/11/03 06:00:56;;;;;;;0.50;0.33;;;13.30;99.90;13.60;100642.00;;;;5012755;28;20180;-68
2022/11/03 06:03:32;;;;;;;2.57;0.50;;;13.40;99.90;13.60;100605.00;;;;5012590;28;20186;-68
2022/11/03 06:05:59;;;;;;;3.00;0.30;;;13.40;99.90;13.60;100637.00;;;;5012090;28;20183;-68
2022/11/03 06:08:35;;;;;;;0.70;0.70;;;13.50;99.90;13.50;100638.00;;;;5012853;28;20322;-68
2022/11/03 06:11:08;;;;;;;1.27;0.40;;;13.50;99.90;13.70;100631.00;;;;5013683;28;20206;-68
2022/11/03 06:13:39;;;;;;;0.30;0.30;;;13.50;99.90;13.90;100634.00;;;;5012550;28;20670;-68
2022/11/03 06:16:31;;;;;;;0.50;0.43;;;13.60;99.90;13.80;100627.00;;;;5012386;28;20187;-68
2022/11/03 06:19:14;;;;;;;3.93;0.53;;;13.60;99.90;13.60;100624.00;;;;5010211;28;20204;-68
2022/11/03 06:21:42;;;;;;;4.87;0.40;;;13.60;99.90;13.70;100635.00;;;;5012445;28;20193;-67
2022/11/03 06:24:13;;;;;;;0.30;0.30;;;13.60;99.90;13.60;100626.00;;;;5012693;28;20234;-68
2022/11/03 06:26:40;;;;;;;0.30;0.30;;;13.50;99.90;13.70;100601.00;;;;5012139;28;20280;-68
2022/11/03 06:29:15;;;;;;;0.20;0.20;;;13.50;99.90;13.60;100625.00;;;;5012649;28;20197;-68
2022/11/03 06:31:44;;;;;;;0.20;0.20;;;13.50;99.90;13.70;100627.00;;;;5012124;28;20269;-68
2022/11/03 06:34:44;;;;;;;0.43;0.30;;;13.50;99.90;13.60;100571.00;;;;5011986;28;20186;-68
2022/11/03 06:37:25;;;;;;;0.73;0.73;;;13.60;99.90;13.80;100625.00;;;;5011806;28;20230;-68
2022/11/03 06:40:18;;;;;;;4.13;1.50;;;13.60;99.90;13.60;100617.00;;;;5015276;28;20194;-68
2022/11/03 06:42:49;;;;;;;0.77;0.77;;;13.60;99.90;13.70;100613.00;;;;5047705;28;20192;-68
2022/11/03 06:45:19;;;;;;;2.10;0.50;;;13.60;99.90;14.00;100612.00;;;;5016041;28;20177;-68
2022/11/03 06:47:45;;;;;;;0.40;0.40;;;13.70;99.90;13.60;100610.00;;;;5031894;28;20237;-68
2022/11/03 06:50:41;;;;;;;2.63;0.67;;;13.60;99.90;13.60;100614.00;;;;5015416;28;20207;-68
2022/11/03 06:53:26;;;;;;;2.13;1.43;;;13.60;99.90;13.60;100602.00;;;;5031515;28;20729;-68
2022/11/03 06:55:53;;;;;;;0.20;0.20;;;13.60;99.90;13.90;100612.00;;;;5035835;28;20638;-68
2022/11/03 06:58:35;;;;;;;0.73;0.50;;;13.70;99.90;13.90;100625.00;;;;5036250;28;20183;-67
2022/11/03 07:01:22;;;;;;;0.83;0.30;;;13.70;99.90;13.80;100614.00;;;;5035788;28;20615;-68
2022/11/03 07:04:07;;;;;;;0.60;0.60;;;13.70;99.90;14.00;100623.00;;;;5035316;28;20531;-68
2022/11/03 07:06:36;;;;;;;0.30;0.30;;;13.80;99.90;13.90;100612.00;;;;5035606;28;20545;-68
2022/11/03 07:09:18;;;;;;;0.20;0.20;;;13.70;99.90;13.80;100616.00;;;;5035784;28;20174;-67
2022/11/03 07:11:57;;;;;;;11.67;1.03;;;13.70;99.90;13.80;100609.00;;;;5034398;28;20203;-67
2022/11/03 07:14:33;;;;;;;0.40;0.40;;;13.70;99.90;13.70;100596.00;;;;5005104;28;20283;-68
2022/11/03 07:17:04;;;;;;;0.40;0.40;;;13.70;99.90;13.90;100608.00;;;;5032165;28;20516;-68
2022/11/03 07:19:42;;;;;;;1.27;1.27;;;13.70;99.90;13.80;100557.00;;;;5048551;28;20211;-68
2022/11/03 07:22:24;;;;;;;0.20;0.20;;;13.70;99.90;13.90;100538.00;;;;5048515;28;20235;-67
2022/11/03 07:25:00;;;;;;;2.97;0.60;;;13.70;99.90;14.00;100601.00;;;;5016639;28;20215;-68
2022/11/03 07:27:45;;;;;;;0.27;0.27;;;13.70;99.90;13.90;100599.00;;;;5048792;28;20187;-68
2022/11/03 07:30:26;;;;;;;0.40;0.40;;;13.70;99.90;13.80;100595.00;;;;5015474;28;20263;-68
2022/11/03 07:33:08;;;;;;;0.30;0.30;;;13.80;99.90;14.20;100583.00;;;;5048139;28;20294;-67
2022/11/03 07:35:43;;;;;;;0.70;0.40;;;13.80;99.90;14.30;100593.00;;;;5031719;28;20175;-68
2022/11/03 07:38:20;;;;;;;0.30;0.30;;;13.90;99.90;14.10;100566.00;;;;5031860;28;20278;-68
2022/11/03 07:40:46;;;;;;;0.20;0.20;;;13.90;99.90;14.30;100558.00;;;;5048288;28;20192;-67
2022/11/03 07:43:21;;;;;;;0.63;0.63;;;14.00;99.90;14.40;100559.00;;;;5048276;28;20207;-68
2022/11/03 07:46:01;;;;;;;0.70;0.70;;;14.10;99.90;14.20;100558.00;;;;5047333;28;20514;-68
2022/11/03 07:48:48;;;;;;;1.70;0.60;;;14.00;99.90;14.10;100552.00;;;;5016491;28;20442;-67
2022/11/03 07:51:34;;;;;;;0.20;0.20;;;14.00;99.90;14.30;100552.00;;;;5015114;28;20235;-68
2022/11/03 07:54:31;;;;;;;0.80;0.80;;;14.00;99.90;14.20;100537.00;;;;5047034;28;20608;-68
2022/11/03 07:57:15;;;;;;;5.03;1.90;;;14.00;99.90;14.20;100532.00;;;;5048341;28;20656;-68
2022/11/03 07:59:47;;;;;;;0.70;0.70;;;14.00;99.90;14.30;100520.00;;;;5048138;28;20255;-68
2022/11/03 08:02:59;;;;;;;1.03;1.00;;;13.90;99.90;14.10;100511.00;;;;5015754;28;20189;-68
2022/11/03 08:05:25;;;;;;;0.43;0.40;;;13.90;99.90;14.20;100510.00;;;;5013969;28;20183;-68
2022/11/03 08:08:02;;;;;;;4.20;0.53;;;14.00;99.90;14.20;100500.00;;;;5048200;28;20569;-67
2022/11/03 08:10:32;;;;;;;0.23;0.23;;;13.90;99.90;14.20;100514.00;;;;5015738;28;20184;-67
2022/11/03 08:13:09;;;;;;;0.40;0.40;;;13.90;99.90;14.30;100494.00;;;;5018786;28;20208;-67
2022/11/03 08:15:35;;;;;;;0.20;0.20;;;14.00;99.90;14.30;100445.00;;;;5035000;28;20183;-67
2022/11/03 08:18:42;;;;;;;0.30;0.30;;;14.00;99.90;14.00;100487.00;;;;5035856;28;20201;-67
2022/11/03 08:21:20;;;;;;;0.63;0.63;;;13.90;99.90;14.40;100482.00;;;;5033851;28;20195;-67
2022/11/03 08:23:48;;;;;;;0.90;0.57;;;14.10;99.90;14.30;100463.00;;;;5034154;28;20678;-67
2022/11/03 08:26:15;;;;;;;0.50;0.50;;;14.10;99.90;14.40;100473.00;;;;5034198;28;20179;-67
2022/11/03 08:28:47;;;;;;;2.60;1.03;;;14.20;99.90;14.10;100470.00;;;;5034240;28;20175;-67
2022/11/03 08:31:36;;;;;;;0.93;0.50;;;14.00;99.90;14.30;100419.00;;;;5034757;28;20214;-67
2022/11/03 08:34:30;;;;;;;2.57;0.47;;;14.00;99.90;14.30;100461.00;;;;5018100;28;20188;-69
2022/11/03 08:36:59;;;;;;;2.97;1.17;;;14.10;99.90;14.20;100464.00;;;;5033965;28;20191;-67
2022/11/03 08:39:48;;;;;;;0.63;0.63;;;14.10;99.90;14.20;100449.00;;;;5034933;28;20719;-67
2022/11/03 08:43:01;;;;;;;0.20;0.20;;;14.10;99.90;14.40;100444.00;;;;5033598;28;20259;-67
2022/11/03 08:45:31;;;;;;;1.50;0.97;;;14.10;99.90;14.20;100433.00;;;;5031619;28;20203;-70
2022/11/03 08:48:12;;;;;;;0.47;0.47;;;14.10;99.90;14.40;100441.00;;;;5033548;28;20208;-68
2022/11/03 08:50:41;;;;;;;0.93;0.80;;;14.30;99.90;14.10;100427.00;;;;5033348;28;20635;-68
2022/11/03 08:53:10;;;;;;;2.63;0.90;;;14.10;99.90;14.20;100414.00;;;;5033854;28;20229;-68
2022/11/03 08:55:35;;;;;;;0.67;0.50;;;14.10;99.90;14.60;100413.00;;;;5017027;28;20192;-66
2022/11/03 08:58:04;;;;;;;0.97;0.70;;;14.20;99.90;14.70;100415.00;;;;5033616;28;20172;-65
2022/11/03 09:00:35;;;;;;;0.20;0.20;;;14.40;99.90;14.80;100399.00;;;;5034473;28;20185;-67
2022/11/03 09:03:04;;;;;;;0.20;0.20;;;14.50;99.90;14.50;100400.00;;;;5033806;28;20185;-68
2022/11/03 09:05:32;;;;;;;0.70;0.70;;;14.30;99.90;14.40;100402.00;;;;5015872;28;20651;-68
2022/11/03 09:07:58;;;;;;;0.30;0.30;;;14.20;99.90;14.20;100393.00;;;;5032347;28;20176;-68
2022/11/03 09:10:25;;;;;;;0.30;0.30;;;14.10;99.90;14.40;100402.00;;;;5033618;28;20534;-68
2022/11/03 09:12:59;;;;;;;0.40;0.40;;;14.10;99.90;14.20;100384.00;;;;5032280;28;20574;-68
2022/11/03 09:15:50;;;;;;;0.93;0.70;;;14.10;99.90;14.20;100382.00;;;;5033546;28;20183;-68
2022/11/03 09:18:21;;;;;;;0.40;0.40;;;14.10;99.90;14.30;100386.00;;;;5034387;28;20622;-68
2022/11/03 09:20:50;;;;;;;1.10;0.60;;;14.10;99.90;14.40;100365.00;;;;5033301;28;20189;-68
2022/11/03 09:23:16;;;;;;;1.57;0.90;;;14.20;99.90;14.30;100369.00;;;;5033437;28;20187;-68
2022/11/03 09:25:42;;;;;;;2.57;1.00;;;14.20;99.90;14.30;100371.00;;;;5033049;28;20183;-67
2022/11/03 09:28:13;;;;;;;0.20;0.20;;;14.10;99.90;14.20;100358.00;;;;5032867;28;20253;-68
2022/11/03 09:30:50;;;;;;;0.40;0.40;;;14.10;99.90;14.40;100350.00;;;;5032824;28;20184;-68
2022/11/03 09:33:24;;;;;;;1.50;1.27;;;14.20;99.90;14.20;100337.00;;;;5032899;28;20270;-68
2022/11/03 09:35:53;;;;;;;0.73;0.43;;;14.10;99.90;14.20;100325.00;;;;5032594;28;20583;-68
2022/11/03 09:38:19;;;;;;;0.30;0.30;;;14.10;99.90;14.20;100330.00;;;;5032928;28;20185;-68
2022/11/03 09:41:16;;;;;;;0.20;0.20;;;14.10;99.90;14.60;100273.00;;;;5032882;28;20215;-68
2022/11/03 09:43:49;;;;;;;0.47;0.47;;;14.10;99.90;14.60;100321.00;;;;5032885;28;20173;-68
2022/11/03 09:46:21;;;;;;;0.50;0.50;;;14.20;99.90;14.40;100325.00;;;;5032303;28;20195;-68
2022/11/03 09:48:47;;;;;;;0.30;0.30;;;14.20;99.90;14.40;100293.00;;;;5033209;28;20547;-68
2022/11/03 09:51:19;;;;;;;1.80;1.70;;;14.10;99.90;14.20;100310.00;;;;5032615;28;20192;-68
2022/11/03 09:54:05;;;;;;;1.23;0.43;;;14.10;99.90;14.40;100309.00;;;;5032532;28;20736;-68
2022/11/03 09:56:45;;;;;;;2.20;0.90;;;14.20;99.90;14.20;100308.00;;;;5032000;28;20257;-68
2022/11/03 09:59:23;;;;;;;1.70;0.83;;;14.20;99.90;14.70;100312.00;;;;5032484;28;20183;-68
2022/11/03 10:01:52;;;;;;;0.50;0.50;;;14.30;99.90;14.50;100299.00;;;;5032169;28;20207;-68
2022/11/03 10:04:39;;;;;;;0.40;0.40;;;14.40;99.90;14.50;100305.00;;;;5019960;28;20204;-68
2022/11/03 10:07:07;;;;;;;0.83;0.77;;;14.30;99.90;14.50;100304.00;;;;5012611;28;20203;-68
2022/11/03 10:09:57;;;;;;;0.20;0.20;;;14.40;99.90;14.90;100283.00;;;;5015669;28;20197;-68
2022/11/03 10:12:40;;;;;;;0.37;0.30;;;14.50;99.90;15.00;100281.00;;;;5012355;28;20210;-68
2022/11/03 10:15:18;;;;;;;2.47;0.70;;;14.60;99.90;14.70;100283.00;;;;5012636;28;20228;-68
2022/11/03 10:17:55;;;;;;;0.60;0.60;;;14.60;99.90;14.80;100282.00;;;;5012200;28;20174;-68
2022/11/03 10:20:22;;;;;;;5.00;1.37;;;14.60;99.90;15.10;100277.00;;;;5012265;28;20511;-68
2022/11/03 10:33:35;;;;;;;1.93;0.90;;;14.80;99.90;15.10;100257.00;;;;5070529;28;20974;-68
2022/11/03 10:36:28;;;;;;;0.20;0.20;;;15.00;99.90;15.70;100251.00;;;;5049290;28;20193;-68
2022/11/03 10:39:37;;;;;;;3.20;1.40;;;15.30;99.90;16.10;100249.00;;;;5046190;28;20187;-68
2022/11/03 10:42:46;;;;;;;0.97;0.50;;;15.50;99.90;15.50;100244.00;;;;5051978;28;20191;-68
2022/11/03 10:46:08;;;;;;;0.30;0.30;;;15.60;99.90;15.70;100232.00;;;;5029768;28;20195;-68
2022/11/03 10:49:23;;;;;;;0.83;0.53;;;15.50;99.90;15.90;100230.00;;;;5061995;28;20177;-68
2022/11/03 10:52:12;;;;;;;0.20;0.20;;;15.50;99.90;15.90;100229.00;;;;5059685;28;20209;-68
2022/11/03 10:54:38;;;;;;;0.93;0.50;;;15.50;99.90;15.70;100215.00;;;;5030119;28;20194;-68
2022/11/03 10:57:07;;;;;;;3.20;0.50;;;15.50;99.90;16.00;100181.00;;;;5076925;28;20183;-71
2022/11/03 10:59:54;;;;;;;0.40;0.40;;;15.70;99.90;16.30;100194.00;;;;5048707;28;20183;-73
2022/11/03 11:02:25;;;;;;;0.50;0.50;;;15.90;99.90;16.40;100210.00;;;;5065007;28;20632;-73
2022/11/03 11:05:20;;;;;;;0.63;0.57;;;16.00;99.90;16.40;100189.00;;;;5065482;28;20201;-67
2022/11/03 11:07:50;;;;;;;0.50;0.50;;;16.20;99.90;16.50;100196.00;;;;5048303;28;20669;-68
2022/11/03 11:10:23;;;;;;;0.73;0.73;;;16.20;99.90;16.40;100203.00;;;;5065380;28;20181;-68
2022/11/03 11:13:17;;;;;;;0.50;0.50;;;16.20;99.90;16.80;100196.00;;;;5048645;28;20559;-70
2022/11/03 11:15:51;;;;;;;0.57;0.57;;;16.30;99.90;16.70;100202.00;;;;5050007;28;20168;-69
2022/11/03 11:18:47;;;;;;;0.73;0.70;;;16.40;99.90;16.90;100187.00;;;;5048899;28;20183;-67
2022/11/03 11:21:18;;;;;;;0.30;0.30;;;16.40;99.90;16.30;100188.00;;;;5055978;28;20617;-76
2022/11/03 11:23:47;;;;;;;0.50;0.50;;;16.20;99.90;16.30;100111.00;;;;5048020;28;20532;-72
2022/11/03 11:26:33;;;;;;;1.50;1.30;;;16.00;99.90;16.70;100155.00;;;;5065086;28;20195;-70
2022/11/03 11:29:08;;;;;;;0.43;0.43;;;16.20;99.90;16.90;100125.00;;;;5048778;28;20196;-71
2022/11/03 11:31:41;;;;;;;1.43;1.03;;;16.40;99.90;17.10;100180.00;;;;5049385;28;20247;-73
2022/11/03 11:34:09;;;;;;;0.20;0.20;;;16.50;99.90;16.70;100183.00;;;;5047975;28;20219;-68
2022/11/03 11:37:06;;;;;;;7.63;0.70;;;16.50;99.90;16.40;100190.00;;;;5049333;28;20181;-69
2022/11/03 11:43:05;;;;;;;0.73;0.73;;;16.10;99.90;17.10;100176.00;;;;5066956;28;20670;-68
2022/11/03 11:46:27;;;;;;;1.07;1.07;;;16.60;99.90;16.90;100166.00;;;;5053697;28;20190;-67
2022/11/03 11:49:35;;;;;;;1.13;0.80;;;16.60;99.90;17.10;100173.00;;;;5053428;28;20183;-69
2022/11/03 11:56:35;;;;;;;1.23;0.47;;;16.70;99.90;17.00;100158.00;;;;5032702;28;20244;-76
2022/11/03 11:59:43;;;;;;;3.77;1.33;;;16.60;99.90;16.80;100151.00;;;;5036909;28;20201;-74
2022/11/03 12:02:22;;;;;;;0.40;0.40;;;16.50;99.90;16.70;100149.00;;;;5036411;28;20596;-67
2022/11/03 12:05:26;;;;;;;1.43;0.60;;;16.40;99.90;16.70;100137.00;;;;5036671;28;20224;-74